sensor_id;sensor_type;location;lat;lon;timestamp;P1;durP1;ratioP1;P2;durP2;ratioP2
22675;SDS011;12521;43.310;21.876;2024-01-15T00:00:11;41.0;;;39.0;;
22675;SDS011;12521;43.310;21.876;2024-01-15T00:04:47;41.0;;;39.0;;
22675;SDS011;12521;43.310;21.876;2024-01-15T00:09:23;40.0;;;36.0;;
22675;SDS011;12521;43.310;21.876;2024-01-15T00:13:59;40.0;;;36.0;;
22675;SDS011;12521;43.310;21.876;2024-01-15T00:18:35;38.0;;;34.0;;
22675;SDS011;12521;43.310;21.876;2024-01-15T00:23:12;38.0;;;34.0;;
22675;SDS011;12521;43.310;21.876;2024-01-15T00:27:48;34.0;;;31.0;;
22675;SDS011;12521;43.310;21.876;2024-01-15T00:32:24;34.0;;;31.0;;
22675;SDS011;12521;43.310;21.876;2024-01-15T00:37:00;34.0;;;31.0;;
22675;SDS011;12521;43.310;21.876;2024-01-15T00:41:35;29.0;;;28.0;;
22675;SDS011;12521;43.310;21.876;2024-01-15T00:46:11;29.0;;;28.0;;
22675;SDS011;12521;43.310;21.876;2024-01-15T00:50:47;29.0;;;28.0;;
22675;SDS011;12521;43.310;21.876;2024-01-15T00:55:23;29.0;;;28.0;;
22675;SDS011;12521;43.310;21.876;2024-01-15T01:09:13;41.0;;;30.0;;
22675;SDS011;12521;43.310;21.876;2024-01-15T01:13:49;41.0;;;30.0;;
22675;SDS011;12521;43.310;21.876;2024-01-15T01:18:25;41.0;;;30.0;;
22675;SDS011;12521;43.310;21.876;2024-01-15T01:23:02;41.0;;;30.0;;
22675;SDS011;12521;43.310;21.876;2024-01-15T01:27:38;34.0;;;28.0;;
22675;SDS011;12521;43.310;21.876;2024-01-15T01:32:14;34.0;;;28.0;;
22675;SDS011;12521;43.310;21.876;2024-01-15T01:36:51;34.0;;;28.0;;
22675;SDS011;12521;43.310;21.876;2024-01-15T01:41:27;28.0;;;26.0;;
22675;SDS011;12521;43.310;21.876;2024-01-15T01:46:05;28.0;;;26.0;;
22675;SDS011;12521;43.310;21.876;2024-01-15T01:50:43;28.0;;;26.0;;
22675;SDS011;12521;43.310;21.876;2024-01-15T01:55:26;28.0;;;26.0;;
22675;SDS011;12521;43.310;21.876;2024-01-15T02:00:11;27.0;;;26.0;;
22675;SDS011;12521;43.310;21.876;2024-01-15T02:04:50;27.0;;;26.0;;
22675;SDS011;12521;43.310;21.876;2024-01-15T02:09:26;32.0;;;25.0;;
22675;SDS011;12521;43.310;21.876;2024-01-15T02:14:03;32.0;;;25.0;;
22675;SDS011;12521;43.310;21.876;2024-01-15T02:18:41;38.0;;;24.0;;
22675;SDS011;12521;43.310;21.876;2024-01-15T02:23:19;38.0;;;24.0;;
22675;SDS011;12521;43.310;21.876;2024-01-15T02:27:56;36.0;;;28.0;;
22675;SDS011;12521;43.310;21.876;2024-01-15T02:32:32;36.0;;;28.0;;
22675;SDS011;12521;43.310;21.876;2024-01-15T02:37:08;36.0;;;28.0;;
22675;SDS011;12521;43.310;21.876;2024-01-15T02:41:44;34.0;;;33.0;;
22675;SDS011;12521;43.310;21.876;2024-01-15T02:46:20;34.0;;;33.0;;
22675;SDS011;12521;43.310;21.876;2024-01-15T02:50:57;30.0;;;27.0;;
22675;SDS011;12521;43.310;21.876;2024-01-15T02:55:33;30.0;;;27.0;;
22675;SDS011;12521;43.310;21.876;2024-01-15T03:00:11;26.0;;;21.0;;
22675;SDS011;12521;43.310;21.876;2024-01-15T03:04:50;26.0;;;21.0;;
22675;SDS011;12521;43.310;21.876;2024-01-15T03:09:26;26.0;;;23.0;;
22675;SDS011;12521;43.310;21.876;2024-01-15T03:14:03;26.0;;;23.0;;
22675;SDS011;12521;43.310;21.876;2024-01-15T03:18:39;27.0;;;25.0;;
22675;SDS011;12521;43.310;21.876;2024-01-15T03:23:15;27.0;;;25.0;;
22675;SDS011;12521;43.310;21.876;2024-01-15T03:27:52;32.0;;;28.0;;
22675;SDS011;12521;43.310;21.876;2024-01-15T03:32:28;32.0;;;28.0;;
22675;SDS011;12521;43.310;21.876;2024-01-15T03:37:05;32.0;;;28.0;;
22675;SDS011;12521;43.310;21.876;2024-01-15T03:41:42;36.0;;;31.0;;
22675;SDS011;12521;43.310;21.876;2024-01-15T03:46:18;36.0;;;31.0;;
22675;SDS011;12521;43.310;21.876;2024-01-15T03:50:54;30.0;;;27.0;;
22675;SDS011;12521;43.310;21.876;2024-01-15T03:55:32;30.0;;;27.0;;
22675;SDS011;12521;43.310;21.876;2024-01-15T04:00:11;24.0;;;23.0;;
22675;SDS011;12521;43.310;21.876;2024-01-15T04:04:52;24.0;;;23.0;;
22675;SDS011;12521;43.310;21.876;2024-01-15T04:09:28;24.0;;;22.0;;
22675;SDS011;12521;43.310;21.876;2024-01-15T04:14:05;24.0;;;22.0;;
22675;SDS011;12521;43.310;21.876;2024-01-15T04:18:41;23.0;;;20.0;;
22675;SDS011;12521;43.310;21.876;2024-01-15T04:23:18;23.0;;;20.0;;
22675;SDS011;12521;43.310;21.876;2024-01-15T04:27:54;22.0;;;20.0;;
22675;SDS011;12521;43.310;21.876;2024-01-15T04:32:31;22.0;;;20.0;;
22675;SDS011;12521;43.310;21.876;2024-01-15T04:37:07;22.0;;;20.0;;
22675;SDS011;12521;43.310;21.876;2024-01-15T04:41:43;20.0;;;19.0;;
22675;SDS011;12521;43.310;21.876;2024-01-15T04:46:20;20.0;;;19.0;;
22675;SDS011;12521;43.310;21.876;2024-01-15T04:50:56;26.0;;;22.0;;
22675;SDS011;12521;43.310;21.876;2024-01-15T04:55:32;26.0;;;22.0;;
22675;SDS011;12521;43.310;21.876;2024-01-15T05:00:11;31.0;;;25.0;;
22675;SDS011;12521;43.310;21.876;2024-01-15T05:04:48;31.0;;;25.0;;
22675;SDS011;12521;43.310;21.876;2024-01-15T05:09:24;30.0;;;24.0;;
22675;SDS011;12521;43.310;21.876;2024-01-15T05:14:00;30.0;;;24.0;;
22675;SDS011;12521;43.310;21.876;2024-01-15T05:18:36;28.0;;;24.0;;
22675;SDS011;12521;43.310;21.876;2024-01-15T05:23:13;28.0;;;24.0;;
22675;SDS011;12521;43.310;21.876;2024-01-15T05:27:49;32.0;;;28.0;;
22675;SDS011;12521;43.310;21.876;2024-01-15T05:32:25;32.0;;;28.0;;
22675;SDS011;12521;43.310;21.876;2024-01-15T05:37:01;32.0;;;28.0;;
22675;SDS011;12521;43.310;21.876;2024-01-15T05:41:38;35.0;;;31.0;;
22675;SDS011;12521;43.310;21.876;2024-01-15T05:46:16;35.0;;;31.0;;
22675;SDS011;12521;43.310;21.876;2024-01-15T05:50:52;37.0;;;34.0;;
22675;SDS011;12521;43.310;21.876;2024-01-15T05:55:29;37.0;;;34.0;;
22675;SDS011;12521;43.310;21.876;2024-01-15T06:00:08;39.0;;;36.0;;
22675;SDS011;12521;43.310;21.876;2024-01-15T06:04:47;39.0;;;36.0;;
22675;SDS011;12521;43.310;21.876;2024-01-15T06:09:23;38.0;;;34.0;;
22675;SDS011;12521;43.310;21.876;2024-01-15T06:14:00;38.0;;;34.0;;
22675;SDS011;12521;43.310;21.876;2024-01-15T06:18:36;37.0;;;31.0;;
22675;SDS011;12521;43.310;21.876;2024-01-15T06:23:12;37.0;;;31.0;;
22675;SDS011;12521;43.310;21.876;2024-01-15T06:27:49;40.0;;;34.0;;
22675;SDS011;12521;43.310;21.876;2024-01-15T06:32:25;40.0;;;34.0;;
22675;SDS011;12521;43.310;21.876;2024-01-15T06:37:01;40.0;;;34.0;;
22675;SDS011;12521;43.310;21.876;2024-01-15T06:41:39;42.0;;;37.0;;
22675;SDS011;12521;43.310;21.876;2024-01-15T06:46:20;42.0;;;37.0;;
22675;SDS011;12521;43.310;21.876;2024-01-15T06:50:58;51.0;;;44.0;;
22675;SDS011;12521;43.310;21.876;2024-01-15T06:55:38;51.0;;;44.0;;
22675;SDS011;12521;43.310;21.876;2024-01-15T07:00:17;60.0;;;51.0;;
22675;SDS011;12521;43.310;21.876;2024-01-15T07:04:54;60.0;;;51.0;;
22675;SDS011;12521;43.310;21.876;2024-01-15T07:09:30;55.0;;;48.0;;
22675;SDS011;12521;43.310;21.876;2024-01-15T07:14:07;55.0;;;48.0;;
22675;SDS011;12521;43.310;21.876;2024-01-15T07:18:43;50.0;;;44.0;;
22675;SDS011;12521;43.310;21.876;2024-01-15T07:23:19;50.0;;;44.0;;
22675;SDS011;12521;43.310;21.876;2024-01-15T07:27:56;50.0;;;46.0;;
22675;SDS011;12521;43.310;21.876;2024-01-15T07:32:32;50.0;;;46.0;;
22675;SDS011;12521;43.310;21.876;2024-01-15T07:37:09;50.0;;;46.0;;
22675;SDS011;12521;43.310;21.876;2024-01-15T07:41:45;51.0;;;48.0;;
22675;SDS011;12521;43.310;21.876;2024-01-15T07:46:21;51.0;;;48.0;;
22675;SDS011;12521;43.310;21.876;2024-01-15T07:50:57;56.0;;;50.0;;
22675;SDS011;12521;43.310;21.876;2024-01-15T07:55:33;56.0;;;50.0;;
22675;SDS011;12521;43.310;21.876;2024-01-15T08:00:11;60.0;;;53.0;;
22675;SDS011;12521;43.310;21.876;2024-01-15T08:04:48;60.0;;;53.0;;
22675;SDS011;12521;43.310;21.876;2024-01-15T08:09:24;45.0;;;40.0;;
22675;SDS011;12521;43.310;21.876;2024-01-15T08:14:01;45.0;;;40.0;;
22675;SDS011;12521;43.310;21.876;2024-01-15T08:18:37;30.0;;;28.0;;
22675;SDS011;12521;43.310;21.876;2024-01-15T08:23:15;30.0;;;28.0;;
22675;SDS011;12521;43.310;21.876;2024-01-15T08:27:51;36.0;;;32.0;;
22675;SDS011;12521;43.310;21.876;2024-01-15T08:32:28;36.0;;;32.0;;
22675;SDS011;12521;43.310;21.876;2024-01-15T08:37:04;36.0;;;32.0;;
22675;SDS011;12521;43.310;21.876;2024-01-15T08:41:40;42.0;;;36.0;;
22675;SDS011;12521;43.310;21.876;2024-01-15T08:46:16;42.0;;;36.0;;
22675;SDS011;12521;43.310;21.876;2024-01-15T08:50:53;44.0;;;39.0;;
22675;SDS011;12521;43.310;21.876;2024-01-15T08:55:31;44.0;;;39.0;;
22675;SDS011;12521;43.310;21.876;2024-01-15T09:00:12;45.0;;;42.0;;
22675;SDS011;12521;43.310;21.876;2024-01-15T09:04:50;45.0;;;42.0;;
22675;SDS011;12521;43.310;21.876;2024-01-15T09:09:26;46.0;;;38.0;;
22675;SDS011;12521;43.310;21.876;2024-01-15T09:14:03;46.0;;;38.0;;
22675;SDS011;12521;43.310;21.876;2024-01-15T09:18:39;47.0;;;33.0;;
22675;SDS011;12521;43.310;21.876;2024-01-15T09:23:15;47.0;;;33.0;;
22675;SDS011;12521;43.310;21.876;2024-01-15T09:27:52;44.0;;;32.0;;
22675;SDS011;12521;43.310;21.876;2024-01-15T09:32:28;44.0;;;32.0;;
22675;SDS011;12521;43.310;21.876;2024-01-15T09:37:05;44.0;;;32.0;;
22675;SDS011;12521;43.310;21.876;2024-01-15T09:41:43;40.0;;;32.0;;
22675;SDS011;12521;43.310;21.876;2024-01-15T09:46:20;40.0;;;32.0;;
22675;SDS011;12521;43.310;21.876;2024-01-15T09:50:57;46.0;;;38.0;;
22675;SDS011;12521;43.310;21.876;2024-01-15T09:55:36;46.0;;;38.0;;
22675;SDS011;12521;43.310;21.876;2024-01-15T10:00:17;51.0;;;43.0;;
22675;SDS011;12521;43.310;21.876;2024-01-15T10:04:54;51.0;;;43.0;;
22675;SDS011;12521;43.310;21.876;2024-01-15T10:09:31;52.0;;;42.0;;
22675;SDS011;12521;43.310;21.876;2024-01-15T10:14:08;52.0;;;42.0;;
22675;SDS011;12521;43.310;21.876;2024-01-15T10:18:45;53.0;;;40.0;;
22675;SDS011;12521;43.310;21.876;2024-01-15T10:23:22;53.0;;;40.0;;
22675;SDS011;12521;43.310;21.876;2024-01-15T10:28:02;52.0;;;39.0;;
22675;SDS011;12521;43.310;21.876;2024-01-15T10:32:40;52.0;;;39.0;;
22675;SDS011;12521;43.310;21.876;2024-01-15T10:37:16;52.0;;;39.0;;
22675;SDS011;12521;43.310;21.876;2024-01-15T10:41:52;51.0;;;38.0;;
22675;SDS011;12521;43.310;21.876;2024-01-15T10:46:31;51.0;;;38.0;;
22675;SDS011;12521;43.310;21.876;2024-01-15T10:51:11;48.0;;;36.0;;
22675;SDS011;12521;43.310;21.876;2024-01-15T10:55:50;48.0;;;36.0;;
22675;SDS011;12521;43.310;21.876;2024-01-15T11:00:28;45.0;;;35.0;;
22675;SDS011;12521;43.310;21.876;2024-01-15T11:05:06;45.0;;;35.0;;
22675;SDS011;12521;43.310;21.876;2024-01-15T11:09:43;46.0;;;40.0;;
22675;SDS011;12521;43.310;21.876;2024-01-15T11:14:41;46.0;;;40.0;;
22675;SDS011;12521;43.310;21.876;2024-01-15T11:19:24;48.0;;;44.0;;
22675;SDS011;12521;43.310;21.876;2024-01-15T11:24:02;48.0;;;44.0;;
22675;SDS011;12521;43.310;21.876;2024-01-15T11:28:55;54.0;;;48.0;;
22675;SDS011;12521;43.310;21.876;2024-01-15T11:33:48;54.0;;;48.0;;
22675;SDS011;12521;43.310;21.876;2024-01-15T11:38:27;60.0;;;51.0;;
22675;SDS011;12521;43.310;21.876;2024-01-15T11:43:04;60.0;;;51.0;;
22675;SDS011;12521;43.310;21.876;2024-01-15T11:48:14;67.0;;;59.0;;
22675;SDS011;12521;43.310;21.876;2024-01-15T11:53:00;67.0;;;59.0;;
22675;SDS011;12521;43.310;21.876;2024-01-15T11:57:53;74.0;;;67.0;;
22675;SDS011;12521;43.310;21.876;2024-01-15T12:02:33;74.0;;;67.0;;
22675;SDS011;12521;43.310;21.876;2024-01-15T12:07:10;74.0;;;67.0;;
22675;SDS011;12521;43.310;21.876;2024-01-15T12:11:55;70.0;;;63.0;;
22675;SDS011;12521;43.310;21.876;2024-01-15T12:17:00;70.0;;;63.0;;
22675;SDS011;12521;43.310;21.876;2024-01-15T12:21:39;67.0;;;59.0;;
22675;SDS011;12521;43.310;21.876;2024-01-15T12:26:16;67.0;;;59.0;;
22675;SDS011;12521;43.310;21.876;2024-01-15T12:30:52;56.0;;;50.0;;
22675;SDS011;12521;43.310;21.876;2024-01-15T12:35:33;56.0;;;50.0;;
22675;SDS011;12521;43.310;21.876;2024-01-15T12:40:12;45.0;;;42.0;;
22675;SDS011;12521;43.310;21.876;2024-01-15T12:44:59;45.0;;;42.0;;
22675;SDS011;12521;43.310;21.876;2024-01-15T12:49:37;44.0;;;40.0;;
22675;SDS011;12521;43.310;21.876;2024-01-15T12:54:14;44.0;;;40.0;;
22675;SDS011;12521;43.310;21.876;2024-01-15T12:58:50;44.0;;;38.0;;
22675;SDS011;12521;43.310;21.876;2024-01-15T13:03:27;44.0;;;38.0;;
22675;SDS011;12521;43.310;21.876;2024-01-15T13:08:04;48.0;;;37.0;;
22675;SDS011;12521;43.310;21.876;2024-01-15T13:12:41;48.0;;;37.0;;
22675;SDS011;12521;43.310;21.876;2024-01-15T13:17:17;48.0;;;37.0;;
22675;SDS011;12521;43.310;21.876;2024-01-15T13:21:53;53.0;;;36.0;;
22675;SDS011;12521;43.310;21.876;2024-01-15T13:26:30;53.0;;;36.0;;
22675;SDS011;12521;43.310;21.876;2024-01-15T13:31:06;45.0;;;32.0;;
22675;SDS011;12521;43.310;21.876;2024-01-15T13:35:43;45.0;;;32.0;;
22675;SDS011;12521;43.310;21.876;2024-01-15T13:40:19;37.0;;;29.0;;
22675;SDS011;12521;43.310;21.876;2024-01-15T13:44:55;37.0;;;29.0;;
22675;SDS011;12521;43.310;21.876;2024-01-15T13:49:32;60.0;;;48.0;;
22675;SDS011;12521;43.310;21.876;2024-01-15T13:54:08;60.0;;;48.0;;
22675;SDS011;12521;43.310;21.876;2024-01-15T13:58:44;84.0;;;67.0;;
22675;SDS011;12521;43.310;21.876;2024-01-15T14:03:21;84.0;;;67.0;;
22675;SDS011;12521;43.310;21.876;2024-01-15T14:07:57;84.0;;;67.0;;
22675;SDS011;12521;43.310;21.876;2024-01-15T14:12:34;84.0;;;67.0;;
22675;SDS011;12521;43.310;21.876;2024-01-15T14:17:10;84.0;;;67.0;;
22675;SDS011;12521;43.310;21.876;2024-01-15T14:30:59;81.0;;;62.0;;
22675;SDS011;12521;43.310;21.876;2024-01-15T14:35:36;81.0;;;62.0;;
22675;SDS011;12521;43.310;21.876;2024-01-15T14:40:12;81.0;;;62.0;;
22675;SDS011;12521;43.310;21.876;2024-01-15T14:44:49;81.0;;;62.0;;
22675;SDS011;12521;43.310;21.876;2024-01-15T14:49:25;76.0;;;56.0;;
22675;SDS011;12521;43.310;21.876;2024-01-15T14:54:01;76.0;;;56.0;;
22675;SDS011;12521;43.310;21.876;2024-01-15T14:58:38;70.0;;;50.0;;
22675;SDS011;12521;43.310;21.876;2024-01-15T15:03:14;70.0;;;50.0;;
22675;SDS011;12521;43.310;21.876;2024-01-15T15:07:51;70.0;;;50.0;;
22675;SDS011;12521;43.310;21.876;2024-01-15T15:12:28;64.0;;;49.0;;
22675;SDS011;12521;43.310;21.876;2024-01-15T15:17:05;64.0;;;49.0;;
22675;SDS011;12521;43.310;21.876;2024-01-15T15:21:41;57.0;;;48.0;;
22675;SDS011;12521;43.310;21.876;2024-01-15T15:26:17;57.0;;;48.0;;
22675;SDS011;12521;43.310;21.876;2024-01-15T15:30:54;64.0;;;50.0;;
22675;SDS011;12521;43.310;21.876;2024-01-15T15:35:31;64.0;;;50.0;;
22675;SDS011;12521;43.310;21.876;2024-01-15T15:40:10;70.0;;;51.0;;
22675;SDS011;12521;43.310;21.876;2024-01-15T15:44:46;70.0;;;51.0;;
22675;SDS011;12521;43.310;21.876;2024-01-15T15:49:22;70.0;;;53.0;;
22675;SDS011;12521;43.310;21.876;2024-01-15T15:53:59;70.0;;;53.0;;
22675;SDS011;12521;43.310;21.876;2024-01-15T15:58:35;70.0;;;55.0;;
22675;SDS011;12521;43.310;21.876;2024-01-15T16:03:11;70.0;;;55.0;;
22675;SDS011;12521;43.310;21.876;2024-01-15T16:07:48;70.0;;;55.0;;
22675;SDS011;12521;43.310;21.876;2024-01-15T16:12:24;64.0;;;52.0;;
22675;SDS011;12521;43.310;21.876;2024-01-15T16:17:01;64.0;;;52.0;;
22675;SDS011;12521;43.310;21.876;2024-01-15T16:21:38;57.0;;;49.0;;
22675;SDS011;12521;43.310;21.876;2024-01-15T16:26:15;57.0;;;49.0;;
22675;SDS011;12521;43.310;21.876;2024-01-15T16:30:51;56.0;;;48.0;;
22675;SDS011;12521;43.310;21.876;2024-01-15T16:35:28;56.0;;;48.0;;
22675;SDS011;12521;43.310;21.876;2024-01-15T16:40:08;55.0;;;47.0;;
22675;SDS011;12521;43.310;21.876;2024-01-15T16:44:46;55.0;;;47.0;;
22675;SDS011;12521;43.310;21.876;2024-01-15T16:49:23;62.0;;;54.0;;
22675;SDS011;12521;43.310;21.876;2024-01-15T16:53:59;62.0;;;54.0;;
22675;SDS011;12521;43.310;21.876;2024-01-15T16:58:35;70.0;;;60.0;;
22675;SDS011;12521;43.310;21.876;2024-01-15T17:03:11;70.0;;;60.0;;
22675;SDS011;12521;43.310;21.876;2024-01-15T17:07:48;70.0;;;60.0;;
22675;SDS011;12521;43.310;21.876;2024-01-15T17:12:24;79.0;;;68.0;;
22675;SDS011;12521;43.310;21.876;2024-01-15T17:17:01;79.0;;;68.0;;
22675;SDS011;12521;43.310;21.876;2024-01-15T17:21:37;88.0;;;76.0;;
22675;SDS011;12521;43.310;21.876;2024-01-15T17:26:13;88.0;;;76.0;;
22675;SDS011;12521;43.310;21.876;2024-01-15T17:30:50;86.0;;;76.0;;
22675;SDS011;12521;43.310;21.876;2024-01-15T17:35:27;86.0;;;76.0;;
22675;SDS011;12521;43.310;21.876;2024-01-15T17:40:08;83.0;;;75.0;;
22675;SDS011;12521;43.310;21.876;2024-01-15T17:44:46;83.0;;;75.0;;
22675;SDS011;12521;43.310;21.876;2024-01-15T17:49:22;112.0;;;98.0;;
22675;SDS011;12521;43.310;21.876;2024-01-15T17:53:59;112.0;;;98.0;;
22675;SDS011;12521;43.310;21.876;2024-01-15T17:58:36;141.0;;;122.0;;
22675;SDS011;12521;43.310;21.876;2024-01-15T18:03:13;141.0;;;122.0;;
22675;SDS011;12521;43.310;21.876;2024-01-15T18:07:49;141.0;;;122.0;;
22675;SDS011;12521;43.310;21.876;2024-01-15T18:12:26;108.0;;;94.0;;
22675;SDS011;12521;43.310;21.876;2024-01-15T18:17:03;108.0;;;94.0;;
22675;SDS011;12521;43.310;21.876;2024-01-15T18:21:39;76.0;;;66.0;;
22675;SDS011;12521;43.310;21.876;2024-01-15T18:26:16;76.0;;;66.0;;
22675;SDS011;12521;43.310;21.876;2024-01-15T18:30:52;58.0;;;50.0;;
22675;SDS011;12521;43.310;21.876;2024-01-15T18:35:28;58.0;;;50.0;;
22675;SDS011;12521;43.310;21.876;2024-01-15T18:40:08;40.0;;;35.0;;
22675;SDS011;12521;43.310;21.876;2024-01-15T18:44:45;40.0;;;35.0;;
22675;SDS011;12521;43.310;21.876;2024-01-15T18:49:21;44.0;;;39.0;;
22675;SDS011;12521;43.310;21.876;2024-01-15T18:53:57;44.0;;;39.0;;
22675;SDS011;12521;43.310;21.876;2024-01-15T18:58:34;49.0;;;43.0;;
22675;SDS011;12521;43.310;21.876;2024-01-15T19:03:10;49.0;;;43.0;;
22675;SDS011;12521;43.310;21.876;2024-01-15T19:07:46;49.0;;;43.0;;
22675;SDS011;12521;43.310;21.876;2024-01-15T19:12:23;55.0;;;46.0;;
22675;SDS011;12521;43.310;21.876;2024-01-15T19:17:02;55.0;;;46.0;;
22675;SDS011;12521;43.310;21.876;2024-01-15T19:21:39;61.0;;;48.0;;
22675;SDS011;12521;43.310;21.876;2024-01-15T19:26:18;61.0;;;48.0;;
22675;SDS011;12521;43.310;21.876;2024-01-15T19:30:55;58.0;;;48.0;;
22675;SDS011;12521;43.310;21.876;2024-01-15T19:35:31;58.0;;;48.0;;
22675;SDS011;12521;43.310;21.876;2024-01-15T19:40:10;54.0;;;47.0;;
22675;SDS011;12521;43.310;21.876;2024-01-15T19:44:47;54.0;;;47.0;;
22675;SDS011;12521;43.310;21.876;2024-01-15T19:49:23;46.0;;;40.0;;
22675;SDS011;12521;43.310;21.876;2024-01-15T19:54:00;46.0;;;40.0;;
22675;SDS011;12521;43.310;21.876;2024-01-15T19:58:36;39.0;;;33.0;;
22675;SDS011;12521;43.310;21.876;2024-01-15T20:03:13;39.0;;;33.0;;
22675;SDS011;12521;43.310;21.876;2024-01-15T20:07:50;39.0;;;33.0;;
22675;SDS011;12521;43.310;21.876;2024-01-15T20:12:26;46.0;;;40.0;;
22675;SDS011;12521;43.310;21.876;2024-01-15T20:17:03;46.0;;;40.0;;
22675;SDS011;12521;43.310;21.876;2024-01-15T20:21:39;53.0;;;47.0;;
22675;SDS011;12521;43.310;21.876;2024-01-15T20:26:16;53.0;;;47.0;;
22675;SDS011;12521;43.310;21.876;2024-01-15T20:30:52;72.0;;;63.0;;
22675;SDS011;12521;43.310;21.876;2024-01-15T20:35:29;72.0;;;63.0;;
22675;SDS011;12521;43.310;21.876;2024-01-15T20:40:08;91.0;;;79.0;;
22675;SDS011;12521;43.310;21.876;2024-01-15T20:44:46;91.0;;;79.0;;
22675;SDS011;12521;43.310;21.876;2024-01-15T20:49:22;86.0;;;74.0;;
22675;SDS011;12521;43.310;21.876;2024-01-15T20:53:58;86.0;;;74.0;;
22675;SDS011;12521;43.310;21.876;2024-01-15T20:58:35;81.0;;;70.0;;
22675;SDS011;12521;43.310;21.876;2024-01-15T21:03:11;81.0;;;70.0;;
22675;SDS011;12521;43.310;21.876;2024-01-15T21:07:51;81.0;;;70.0;;
22675;SDS011;12521;43.310;21.876;2024-01-15T21:12:27;81.0;;;67.0;;
22675;SDS011;12521;43.310;21.876;2024-01-15T21:17:04;81.0;;;67.0;;
22675;SDS011;12521;43.310;21.876;2024-01-15T21:21:40;81.0;;;64.0;;
22675;SDS011;12521;43.310;21.876;2024-01-15T21:26:16;81.0;;;64.0;;
22675;SDS011;12521;43.310;21.876;2024-01-15T21:30:52;56.0;;;44.0;;
22675;SDS011;12521;43.310;21.876;2024-01-15T21:35:28;56.0;;;44.0;;
22675;SDS011;12521;43.310;21.876;2024-01-15T21:40:07;32.0;;;24.0;;
22675;SDS011;12521;43.310;21.876;2024-01-15T21:44:44;32.0;;;24.0;;
22675;SDS011;12521;43.310;21.876;2024-01-15T21:49:21;35.0;;;24.0;;
22675;SDS011;12521;43.310;21.876;2024-01-15T21:53:59;35.0;;;24.0;;
22675;SDS011;12521;43.310;21.876;2024-01-15T21:58:36;38.0;;;25.0;;
22675;SDS011;12521;43.310;21.876;2024-01-15T22:03:13;38.0;;;25.0;;
22675;SDS011;12521;43.310;21.876;2024-01-15T22:07:49;38.0;;;25.0;;
22675;SDS011;12521;43.310;21.876;2024-01-15T22:12:26;41.0;;;28.0;;
22675;SDS011;12521;43.310;21.876;2024-01-15T22:17:03;41.0;;;28.0;;
22675;SDS011;12521;43.310;21.876;2024-01-15T22:21:42;44.0;;;31.0;;
22675;SDS011;12521;43.310;21.876;2024-01-15T22:26:18;44.0;;;31.0;;
22675;SDS011;12521;43.310;21.876;2024-01-15T22:30:54;38.0;;;30.0;;
22675;SDS011;12521;43.310;21.876;2024-01-15T22:35:31;38.0;;;30.0;;
22675;SDS011;12521;43.310;21.876;2024-01-15T22:40:09;33.0;;;29.0;;
22675;SDS011;12521;43.310;21.876;2024-01-15T22:44:46;33.0;;;29.0;;
22675;SDS011;12521;43.310;21.876;2024-01-15T22:49:22;29.0;;;24.0;;
22675;SDS011;12521;43.310;21.876;2024-01-15T22:53:59;29.0;;;24.0;;
22675;SDS011;12521;43.310;21.876;2024-01-15T22:58:35;25.0;;;19.0;;
22675;SDS011;12521;43.310;21.876;2024-01-15T23:03:12;25.0;;;19.0;;
22675;SDS011;12521;43.310;21.876;2024-01-15T23:07:49;25.0;;;19.0;;
22675;SDS011;12521;43.310;21.876;2024-01-15T23:12:26;20.0;;;16.0;;
22675;SDS011;12521;43.310;21.876;2024-01-15T23:17:03;20.0;;;16.0;;
22675;SDS011;12521;43.310;21.876;2024-01-15T23:21:41;15.0;;;14.0;;
22675;SDS011;12521;43.310;21.876;2024-01-15T23:26:19;15.0;;;14.0;;
22675;SDS011;12521;43.310;21.876;2024-01-15T23:30:56;16.0;;;14.0;;
22675;SDS011;12521;43.310;21.876;2024-01-15T23:35:32;16.0;;;14.0;;
22675;SDS011;12521;43.310;21.876;2024-01-15T23:40:11;16.0;;;13.0;;
22675;SDS011;12521;43.310;21.876;2024-01-15T23:44:47;16.0;;;13.0;;
22675;SDS011;12521;43.310;21.876;2024-01-15T23:49:23;22.0;;;17.0;;
22675;SDS011;12521;43.310;21.876;2024-01-15T23:53:59;22.0;;;17.0;;
22675;SDS011;12521;43.310;21.876;2024-01-15T23:58:35;28.0;;;21.0;;
